createdAt,value
2018-01-28T00:02:24.136Z,6.56
2018-01-28T00:04:52.094Z,6.71
2018-01-28T00:07:20.537Z,6.68
2018-01-28T00:09:48.463Z,6.65
2018-01-28T00:12:16.454Z,6.65
2018-01-28T00:14:44.457Z,6.56
2018-01-28T00:17:12.406Z,6.66
2018-01-28T00:19:40.363Z,6.65
2018-01-28T00:22:08.394Z,6.66
2018-01-28T00:24:36.371Z,6.73
2018-01-28T00:27:04.347Z,6.66
2018-01-28T00:29:32.267Z,6.56
2018-01-28T00:32:00.284Z,6.55
2018-01-28T00:34:28.239Z,6.51
2018-01-28T00:36:56.187Z,6.36
2018-01-28T00:39:25.506Z,6.33
2018-01-28T00:41:53.537Z,6.29
2018-01-28T00:44:21.467Z,6.43
2018-01-28T00:46:49.454Z,6.33
2018-01-28T00:49:17.412Z,6.25
2018-01-28T00:51:45.393Z,6.19
2018-01-28T00:54:13.345Z,6.13
2018-01-28T00:56:41.314Z,6.05
2018-01-28T00:59:09.485Z,5.98
2018-01-28T01:01:37.557Z,5.87
2018-01-28T01:04:05.543Z,5.83
2018-01-28T01:06:33.500Z,5.85
2018-01-28T01:09:01.510Z,5.65
2018-01-28T01:11:29.456Z,5.74
2018-01-28T01:13:57.409Z,5.71
2018-01-28T01:16:25.342Z,5.75
2018-01-28T01:18:53.269Z,5.68
2018-01-28T01:21:22.035Z,5.70
2018-01-28T01:23:50.080Z,5.66
2018-01-28T01:26:18.017Z,5.79
2018-01-28T01:28:45.991Z,5.62
2018-01-28T01:31:13.923Z,5.61
2018-01-28T01:33:41.877Z,5.64
2018-01-28T01:36:09.964Z,5.60
2018-01-28T01:38:37.870Z,5.70
2018-01-28T01:41:05.832Z,5.67
2018-01-28T01:43:34.009Z,5.57
2018-01-28T01:46:02.046Z,5.74
2018-01-28T01:48:29.980Z,5.62
2018-01-28T01:50:58.020Z,5.51
2018-01-28T01:53:26.025Z,5.62
2018-01-28T01:55:53.954Z,5.64
2018-01-28T01:58:21.956Z,5.50
2018-01-28T02:00:49.974Z,5.56
2018-01-28T02:03:18.022Z,5.67
2018-01-28T02:05:45.972Z,5.61
2018-01-28T02:08:13.915Z,5.71
2018-01-28T02:10:41.853Z,5.67
2018-01-28T02:13:09.853Z,5.67
2018-01-28T02:15:37.833Z,5.67
2018-01-28T02:18:05.895Z,5.69
2018-01-28T02:20:34.009Z,5.64
2018-01-28T02:23:02.653Z,5.70
2018-01-28T02:25:30.693Z,5.70
2018-01-28T02:27:58.627Z,5.79
2018-01-28T02:30:26.664Z,5.85
2018-01-28T02:32:54.780Z,5.79
2018-01-28T02:35:22.870Z,5.80
2018-01-28T02:37:50.805Z,5.84
2018-01-28T02:40:18.739Z,5.86
2018-01-28T02:42:46.809Z,5.92
2018-01-28T02:45:14.959Z,5.95
2018-01-28T02:47:42.943Z,6.07
2018-01-28T02:50:10.889Z,6.07
2018-01-28T02:52:38.822Z,6.12
2018-01-28T02:55:06.750Z,6.08
2018-01-28T02:57:34.763Z,6.07
2018-01-28T03:00:02.789Z,6.11
2018-01-28T03:02:30.864Z,6.05
2018-01-28T03:04:58.764Z,6.22
2018-01-28T03:07:26.699Z,6.30
2018-01-28T03:09:54.603Z,6.30
2018-01-28T03:12:22.536Z,6.27
2018-01-28T03:14:50.505Z,6.26
2018-01-28T03:17:18.505Z,6.41
2018-01-28T03:19:47.307Z,6.41
2018-01-28T03:22:15.259Z,6.51
2018-01-28T03:24:43.367Z,6.54
2018-01-28T03:27:11.273Z,6.56
2018-01-28T03:29:39.240Z,6.49
2018-01-28T03:32:07.190Z,6.55
2018-01-28T03:34:35.159Z,6.61
2018-01-28T03:37:03.084Z,6.53
2018-01-28T03:39:31.034Z,6.59
2018-01-28T03:41:58.964Z,6.58
2018-01-28T03:44:26.897Z,6.66
2018-01-28T03:46:54.908Z,6.66
2018-01-28T03:49:22.844Z,6.68
2018-01-28T03:51:50.761Z,6.65
2018-01-28T03:54:18.730Z,6.67
2018-01-28T03:56:46.677Z,6.78
2018-01-28T03:59:14.606Z,6.74
2018-01-28T04:01:42.981Z,6.80
2018-01-28T04:04:10.917Z,6.91
2018-01-28T04:06:38.921Z,6.87
2018-01-28T04:09:07.341Z,6.79
2018-01-28T04:11:35.289Z,6.76
2018-01-28T04:14:03.299Z,6.85
2018-01-28T04:16:31.681Z,6.78
2018-01-28T04:19:00.000Z,6.75
2018-01-28T04:21:27.994Z,6.72
2018-01-28T04:23:55.940Z,6.80
2018-01-28T04:26:24.397Z,6.80
2018-01-28T04:28:52.312Z,6.84
2018-01-28T04:31:20.233Z,6.82
2018-01-28T04:33:48.157Z,6.87
2018-01-28T04:36:16.106Z,6.88
2018-01-28T04:38:44.858Z,6.75
2018-01-28T04:41:12.919Z,6.74
2018-01-28T04:43:40.836Z,6.84
2018-01-28T04:46:08.768Z,6.88
2018-01-28T04:48:36.698Z,6.94
2018-01-28T04:51:04.664Z,7.03
2018-01-28T04:53:32.718Z,7.03
2018-01-28T04:56:00.652Z,7.12
2018-01-28T04:58:29.333Z,7.08
2018-01-28T05:00:57.297Z,7.02
2018-01-28T05:03:25.352Z,7.01
2018-01-28T05:05:53.560Z,6.95
2018-01-28T05:08:21.479Z,7.08
2018-01-28T05:10:49.408Z,6.91
2018-01-28T05:13:17.351Z,6.93
2018-01-28T05:15:45.281Z,6.91
2018-01-28T05:18:13.235Z,6.97
2018-01-28T05:20:41.158Z,6.89
2018-01-28T05:23:09.092Z,7.12
2018-01-28T05:25:37.061Z,7.07
2018-01-28T05:28:04.981Z,7.01
2018-01-28T05:30:32.915Z,6.99
2018-01-28T05:33:00.925Z,7.04
2018-01-28T05:35:28.852Z,7.08
2018-01-28T05:37:56.861Z,7.05
2018-01-28T05:40:24.862Z,7.10
2018-01-28T05:42:52.792Z,7.15
2018-01-28T05:45:20.714Z,7.08
2018-01-28T05:47:48.734Z,7.01
2018-01-28T05:50:16.641Z,7.02
2018-01-28T05:52:44.599Z,7.11
2018-01-28T05:55:12.503Z,7.09
2018-01-28T05:57:40.504Z,7.22
2018-01-28T06:00:08.513Z,7.26
2018-01-28T06:02:36.469Z,7.16
2018-01-28T06:05:04.657Z,7.27
2018-01-28T06:07:33.475Z,7.20
2018-01-28T06:10:01.465Z,7.33
2018-01-28T06:12:29.390Z,7.29
2018-01-28T06:14:57.361Z,7.35
2018-01-28T06:17:25.264Z,7.32
2018-01-28T06:19:53.278Z,7.33
2018-01-28T06:22:21.210Z,7.27
2018-01-28T06:24:49.306Z,7.32
2018-01-28T06:27:17.289Z,7.17
2018-01-28T06:29:45.302Z,7.35
2018-01-28T06:32:13.213Z,7.45
2018-01-28T06:34:41.328Z,7.34
2018-01-28T06:37:09.598Z,7.32
2018-01-28T06:39:37.550Z,7.40
2018-01-28T06:42:05.866Z,7.37
2018-01-28T06:44:33.841Z,7.30
2018-01-28T06:47:02.520Z,7.23
2018-01-28T06:49:30.493Z,7.46
2018-01-28T06:51:58.425Z,7.40
2018-01-28T06:54:26.369Z,7.34
2018-01-28T06:56:54.298Z,7.27
2018-01-28T06:59:22.426Z,7.31
2018-01-28T07:01:50.333Z,7.28
2018-01-28T07:04:18.249Z,7.39
2018-01-28T07:06:46.271Z,7.30
2018-01-28T07:09:14.240Z,7.30
2018-01-28T07:11:42.182Z,7.42
2018-01-28T07:14:10.145Z,7.26
2018-01-28T07:16:38.151Z,7.11
2018-01-28T07:19:06.044Z,7.18
2018-01-28T07:21:33.973Z,7.31
2018-01-28T07:24:01.890Z,7.27
2018-01-28T07:26:29.801Z,7.27
2018-01-28T07:28:57.780Z,7.28
2018-01-28T07:31:25.693Z,7.26
2018-01-28T07:33:53.593Z,7.34
2018-01-28T07:36:21.516Z,7.29
2018-01-28T07:38:49.434Z,7.24
2018-01-28T07:41:17.408Z,7.26
2018-01-28T07:43:45.328Z,7.18
2018-01-28T07:46:13.253Z,7.16
2018-01-28T07:48:46.853Z,7.23
2018-01-28T07:51:14.762Z,7.28
2018-01-28T07:53:42.714Z,7.18
2018-01-28T07:56:10.637Z,7.29
2018-01-28T07:58:38.552Z,7.13
2018-01-28T08:01:06.493Z,7.19
2018-01-28T08:03:34.452Z,7.29
2018-01-28T08:06:02.361Z,7.28
2018-01-28T08:08:31.058Z,7.19
2018-01-28T08:10:59.911Z,7.24
2018-01-28T08:13:27.862Z,7.20
2018-01-28T08:15:55.777Z,7.26
2018-01-28T08:18:23.744Z,7.13
2018-01-28T08:20:51.668Z,7.18
2018-01-28T08:23:19.578Z,7.38
2018-01-28T08:25:47.579Z,7.34
2018-01-28T08:28:19.033Z,7.53
2018-01-28T08:30:46.969Z,7.46
2018-01-28T08:33:14.906Z,7.34
2018-01-28T08:35:42.833Z,7.34
2018-01-28T08:38:10.774Z,7.48
2018-01-28T08:40:38.745Z,7.53
2018-01-28T08:43:06.649Z,7.61
2018-01-28T08:45:34.632Z,7.47
2018-01-28T08:48:02.573Z,7.72
2018-01-28T08:50:30.506Z,7.70
2018-01-28T08:52:58.437Z,7.68
2018-01-28T08:55:26.361Z,7.73
2018-01-28T08:57:54.273Z,7.75
2018-01-28T09:00:22.213Z,7.65
2018-01-28T09:02:50.161Z,7.74
2018-01-28T09:05:18.091Z,7.88
2018-01-28T09:07:46.006Z,7.98
2018-01-28T09:10:13.970Z,7.93
2018-01-28T09:12:41.898Z,8.08
2018-01-28T09:15:09.860Z,8.11
2018-01-28T09:17:37.802Z,7.97
2018-01-28T09:20:05.733Z,8.27
2018-01-28T09:22:33.660Z,8.41
2018-01-28T09:25:01.600Z,8.32
2018-01-28T09:27:29.513Z,8.18
2018-01-28T09:29:57.485Z,8.11
2018-01-28T09:32:25.441Z,8.13
2018-01-28T09:35:03.686Z,8.07
2018-01-28T09:37:35.240Z,8.16
2018-01-28T09:40:03.477Z,8.03
2018-01-28T09:42:31.841Z,8.09
2018-01-28T09:45:01.538Z,8.00
2018-01-28T09:47:29.599Z,8.16
2018-01-28T09:49:58.002Z,8.28
2018-01-28T09:52:26.232Z,8.27
2018-01-28T09:54:54.303Z,8.22
2018-01-28T09:57:25.486Z,8.19
2018-01-28T09:59:53.653Z,8.29
2018-01-28T10:02:22.607Z,8.27
2018-01-28T10:04:51.233Z,8.31
2018-01-28T10:07:22.075Z,8.38
2018-01-28T10:09:50.714Z,8.22
2018-01-28T10:12:18.755Z,8.37
2018-01-28T10:14:47.574Z,8.39
2018-01-28T10:17:15.578Z,8.57
2018-01-28T10:19:44.562Z,8.51
2018-01-28T10:22:13.303Z,8.56
2018-01-28T10:24:41.941Z,8.47
2018-01-28T10:27:10.101Z,8.80
2018-01-28T10:29:38.489Z,8.80
2018-01-28T10:32:06.852Z,8.81
2018-01-28T10:34:36.457Z,8.95
2018-01-28T10:37:04.544Z,8.95
2018-01-28T10:39:33.944Z,9.06
2018-01-28T10:42:02.501Z,8.81
2018-01-28T10:44:31.841Z,8.93
2018-01-28T10:46:59.778Z,8.94
2018-01-28T10:49:28.030Z,8.93
2018-01-28T10:51:56.792Z,8.89
2018-01-28T10:54:29.936Z,8.97
2018-01-28T10:56:58.471Z,8.83
2018-01-28T10:59:27.010Z,8.98
2018-01-28T11:01:58.127Z,8.81
2018-01-28T11:04:26.164Z,8.89
2018-01-28T11:06:54.307Z,8.96
2018-01-28T11:09:23.980Z,8.76
2018-01-28T11:11:52.777Z,8.70
2018-01-28T11:14:25.241Z,8.85
2018-01-28T11:16:55.601Z,8.72
2018-01-28T11:19:27.232Z,8.80
2018-01-28T11:21:56.248Z,9.02
2018-01-28T11:24:25.834Z,8.82
2018-01-28T11:26:55.032Z,8.96
2018-01-28T11:29:24.419Z,9.05
2018-01-28T11:31:54.553Z,9.07
2018-01-28T11:34:25.709Z,9.04
2018-01-28T11:36:57.380Z,9.02
2018-01-28T11:39:26.647Z,8.94
2018-01-28T11:41:58.134Z,8.97
2018-01-28T11:44:28.249Z,9.02
2018-01-28T11:46:57.657Z,9.02
2018-01-28T11:49:27.228Z,9.11
2018-01-28T11:51:57.385Z,9.19
2018-01-28T11:54:26.766Z,9.21
2018-01-28T11:56:56.496Z,9.36
2018-01-28T11:59:26.543Z,9.49
2018-01-28T12:01:58.329Z,9.57
2018-01-28T12:04:26.373Z,9.70
2018-01-28T12:06:55.606Z,9.51
2018-01-28T12:09:24.084Z,9.38
2018-01-28T12:11:52.815Z,9.46
2018-01-28T12:14:21.870Z,9.36
2018-01-28T12:16:52.175Z,9.47
2018-01-28T12:19:21.228Z,9.45
2018-01-28T12:21:51.312Z,9.46
2018-01-28T12:24:22.556Z,9.46
2018-01-28T12:26:52.162Z,9.36
2018-01-28T12:29:22.563Z,9.27
2018-01-28T12:31:53.704Z,9.27
2018-01-28T12:34:23.035Z,9.36
2018-01-28T12:36:51.763Z,9.47
2018-01-28T12:39:21.091Z,9.57
2018-01-28T12:41:50.154Z,9.69
2018-01-28T12:44:19.287Z,9.66
2018-01-28T12:46:48.479Z,9.56
2018-01-28T12:49:17.145Z,9.57
2018-01-28T12:51:47.549Z,9.48
2018-01-28T12:54:15.899Z,9.61
2018-01-28T12:56:45.180Z,9.45
2018-01-28T12:59:15.012Z,9.35
2018-01-28T13:01:44.108Z,9.38
2018-01-28T13:04:12.463Z,9.49
2018-01-28T13:06:44.879Z,9.45
2018-01-28T13:09:15.066Z,9.57
2018-01-28T13:11:43.924Z,9.50
2018-01-28T13:14:13.067Z,9.38
2018-01-28T13:16:44.390Z,9.53
2018-01-28T13:19:14.113Z,9.50
2018-01-28T13:21:42.109Z,9.59
2018-01-28T13:24:13.900Z,9.52
2018-01-28T13:26:42.687Z,9.36
2018-01-28T13:29:11.110Z,9.55
2018-01-28T13:31:40.440Z,9.38
2018-01-28T13:34:08.844Z,9.47
2018-01-28T13:36:37.236Z,9.57
2018-01-28T13:39:05.780Z,9.53
2018-01-28T13:41:35.065Z,9.61
2018-01-28T13:44:04.016Z,9.63
2018-01-28T13:46:33.293Z,9.47
2018-01-28T13:49:03.230Z,9.45
2018-01-28T13:51:32.645Z,9.56
2018-01-28T13:54:01.462Z,9.47
2018-01-28T13:56:31.822Z,9.45
2018-01-28T13:59:01.733Z,9.39
2018-01-28T14:01:30.761Z,9.52
2018-01-28T14:03:59.439Z,9.63
2018-01-28T14:06:28.145Z,9.37
2018-01-28T14:08:57.126Z,9.40
2018-01-28T14:11:25.568Z,9.38
2018-01-28T14:13:57.307Z,9.31
2018-01-28T14:16:26.030Z,9.32
2018-01-28T14:18:55.005Z,9.31
2018-01-28T14:21:24.128Z,9.36
2018-01-28T14:23:52.266Z,9.33
2018-01-28T14:26:20.896Z,9.35
2018-01-28T14:28:49.872Z,9.34
2018-01-28T14:31:20.112Z,9.25
2018-01-28T14:33:48.561Z,9.15
2018-01-28T14:36:18.275Z,9.14
2018-01-28T14:38:47.097Z,9.18
2018-01-28T14:41:16.951Z,9.19
2018-01-28T14:43:47.386Z,9.26
2018-01-28T14:46:15.952Z,9.11
2018-01-28T14:48:47.129Z,9.05
2018-01-28T14:51:17.354Z,9.12
2018-01-28T14:53:48.156Z,9.10
2018-01-28T14:56:19.198Z,9.08
2018-01-28T14:58:48.906Z,9.15
2018-01-28T15:01:19.232Z,9.03
2018-01-28T15:03:47.918Z,8.98
2018-01-28T15:06:16.291Z,8.92
2018-01-28T15:08:46.094Z,8.96
2018-01-28T15:11:15.243Z,9.16
2018-01-28T15:13:43.498Z,8.98
2018-01-28T15:16:12.263Z,8.92
2018-01-28T15:18:41.585Z,8.80
2018-01-28T15:21:11.429Z,8.96
2018-01-28T15:23:42.306Z,8.90
2018-01-28T15:26:12.979Z,8.90
2018-01-28T15:28:42.991Z,8.95
2018-01-28T15:31:11.121Z,9.00
2018-01-28T15:33:40.537Z,8.82
2018-01-28T15:36:09.699Z,8.83
2018-01-28T15:38:37.811Z,8.98
2018-01-28T15:41:06.811Z,8.87
2018-01-28T15:43:35.997Z,8.88
2018-01-28T15:46:04.010Z,8.66
2018-01-28T15:48:31.973Z,8.76
2018-01-28T15:51:00.043Z,8.77
2018-01-28T15:53:28.013Z,8.82
2018-01-28T15:55:56.062Z,8.70
2018-01-28T15:58:24.055Z,8.77
2018-01-28T16:00:53.375Z,8.89
2018-01-28T16:03:21.366Z,8.95
2018-01-28T16:05:49.329Z,8.88
2018-01-28T16:08:17.347Z,8.79
2018-01-28T16:10:45.910Z,8.86
2018-01-28T16:13:14.735Z,8.92
2018-01-28T16:15:42.741Z,8.77
2018-01-28T16:18:10.740Z,8.94
2018-01-28T16:20:38.779Z,8.95
2018-01-28T16:23:06.796Z,8.83
2018-01-28T16:25:34.797Z,8.79
2018-01-28T16:28:02.846Z,8.73
2018-01-28T16:30:30.857Z,8.73
2018-01-28T16:32:58.857Z,8.78
2018-01-28T16:35:26.927Z,8.75
2018-01-28T16:37:54.882Z,8.73
2018-01-28T16:40:22.912Z,8.68
2018-01-28T16:42:50.998Z,8.58
2018-01-28T16:45:20.239Z,8.47
2018-01-28T16:47:48.611Z,8.29
2018-01-28T16:50:16.564Z,8.28
2018-01-28T16:52:44.663Z,8.37
2018-01-28T16:55:13.076Z,8.31
2018-01-28T16:57:41.902Z,8.42
2018-01-28T17:00:09.898Z,8.49
2018-01-28T17:02:37.918Z,8.28
2018-01-28T17:05:05.953Z,8.26
2018-01-28T17:07:33.983Z,8.16
2018-01-28T17:10:02.956Z,8.06
2018-01-28T17:12:31.057Z,7.93
2018-01-28T17:14:59.153Z,8.00
2018-01-28T17:17:27.390Z,7.98
2018-01-28T17:19:55.374Z,7.93
2018-01-28T17:22:23.465Z,8.03
2018-01-28T17:24:52.126Z,7.96
2018-01-28T17:27:20.142Z,8.00
2018-01-28T17:29:48.122Z,8.08
2018-01-28T17:32:16.204Z,7.98
2018-01-28T17:34:44.277Z,8.07
2018-01-28T17:37:12.356Z,7.98
2018-01-28T17:39:40.600Z,8.04
2018-01-28T17:42:09.009Z,8.01
2018-01-28T17:44:37.082Z,7.73
2018-01-28T17:47:05.115Z,7.91
2018-01-28T17:49:33.817Z,7.72
2018-01-28T17:52:02.369Z,7.76
2018-01-28T17:54:30.371Z,7.84
2018-01-28T17:56:58.412Z,7.68
2018-01-28T17:59:26.395Z,7.72
2018-01-28T18:01:54.392Z,7.49
2018-01-28T18:04:23.767Z,7.52
2018-01-28T18:06:51.851Z,7.62
2018-01-28T18:09:20.832Z,7.69
2018-01-28T18:11:48.908Z,7.62
2018-01-28T18:14:16.996Z,7.78
2018-01-28T18:16:44.975Z,8.13
2018-01-28T18:19:13.735Z,7.78
2018-01-28T18:21:41.719Z,7.64
2018-01-28T18:24:09.670Z,7.67
2018-01-28T18:26:37.750Z,7.72
2018-01-28T18:29:05.763Z,7.64
2018-01-28T18:31:33.810Z,7.63
2018-01-28T18:34:01.884Z,7.77
2018-01-28T18:36:29.935Z,7.81
2018-01-28T18:38:58.740Z,7.62
2018-01-28T18:41:27.234Z,7.60
2018-01-28T18:43:55.293Z,7.60
2018-01-28T18:46:23.467Z,7.69
2018-01-28T18:48:51.419Z,7.73
2018-01-28T18:51:19.429Z,7.83
2018-01-28T18:53:47.412Z,7.91
2018-01-28T18:56:16.383Z,7.96
2018-01-28T18:58:44.335Z,7.93
2018-01-28T19:01:12.363Z,7.96
2018-01-28T19:03:40.287Z,8.14
2018-01-28T19:06:08.550Z,7.96
2018-01-28T19:08:36.851Z,8.07
2018-01-28T19:11:04.836Z,7.96
2018-01-28T19:13:33.173Z,7.92
2018-01-28T19:16:01.223Z,8.01
2018-01-28T19:18:29.290Z,8.24
2018-01-28T19:20:57.431Z,8.42
2018-01-28T19:23:25.398Z,8.47
2018-01-28T19:25:53.471Z,8.41
2018-01-28T19:28:22.230Z,8.30
2018-01-28T19:30:50.233Z,8.03
2018-01-28T19:33:18.466Z,8.08
2018-01-28T19:35:48.706Z,8.02
2018-01-28T19:38:17.316Z,8.04
2018-01-28T19:40:45.374Z,8.02
2018-01-28T19:43:13.513Z,8.20
2018-01-28T19:45:41.637Z,8.07
2018-01-28T19:48:10.686Z,7.97
2018-01-28T19:50:38.761Z,8.08
2018-01-28T19:53:06.925Z,8.03
2018-01-28T19:55:34.934Z,8.11
2018-01-28T19:58:03.638Z,8.07
2018-01-28T20:00:31.668Z,7.98
2018-01-28T20:03:00.768Z,8.19
2018-01-28T20:05:29.225Z,8.12
2018-01-28T20:07:57.976Z,8.17
2018-01-28T20:10:25.908Z,8.07
2018-01-28T20:12:53.842Z,8.09
2018-01-28T20:15:22.431Z,7.91
2018-01-28T20:17:50.347Z,8.15
2018-01-28T20:20:18.272Z,7.98
2018-01-28T20:22:46.840Z,8.07
2018-01-28T20:25:14.860Z,8.06
2018-01-28T20:27:42.812Z,8.07
2018-01-28T20:30:10.714Z,8.00
2018-01-28T20:32:38.672Z,8.22
2018-01-28T20:35:06.597Z,8.09
2018-01-28T20:37:34.549Z,8.18
2018-01-28T20:40:02.467Z,8.07
2018-01-28T20:42:30.545Z,8.24
2018-01-28T20:44:59.096Z,8.22
2018-01-28T20:47:27.833Z,8.33
2018-01-28T20:49:56.762Z,8.39
2018-01-28T20:52:25.242Z,8.44
2018-01-28T20:54:53.541Z,8.45
2018-01-28T20:57:21.727Z,8.34
2018-01-28T20:59:49.829Z,8.52
2018-01-28T21:02:18.062Z,8.53
2018-01-28T21:04:46.236Z,8.59
2018-01-28T21:07:15.230Z,8.67
2018-01-28T21:09:43.149Z,8.63
2018-01-28T21:12:11.791Z,8.77
2018-01-28T21:14:39.781Z,8.82
2018-01-28T21:17:07.826Z,8.92
2018-01-28T21:19:35.967Z,8.85
2018-01-28T21:22:04.891Z,8.89
2018-01-28T21:24:33.745Z,8.86
2018-01-28T21:27:01.854Z,8.92
2018-01-28T21:29:29.874Z,9.03
2018-01-28T21:31:57.789Z,9.06
2018-01-28T21:34:26.888Z,9.04
2018-01-28T21:36:54.763Z,9.12
2018-01-28T21:39:22.720Z,9.27
2018-01-28T21:41:50.728Z,9.22
2018-01-28T21:44:20.339Z,9.16
2018-01-28T21:46:48.681Z,9.17
2018-01-28T21:51:51.529Z,9.12
2018-01-28T21:54:19.529Z,9.23
2018-01-28T21:56:47.536Z,9.31
2018-01-28T21:59:16.141Z,9.26
2018-01-28T22:01:44.181Z,9.35
2018-01-28T22:04:12.196Z,9.32
2018-01-28T22:06:40.222Z,9.25
2018-01-28T22:09:10.031Z,9.35
2018-01-28T22:11:41.715Z,9.27
2018-01-28T22:14:10.491Z,9.25
2018-01-28T22:16:40.478Z,9.34
2018-01-28T22:19:08.571Z,9.32
2018-01-28T22:21:36.950Z,9.31
2018-01-28T22:24:04.994Z,9.19
2018-01-28T22:26:33.032Z,9.23
2018-01-28T22:29:01.058Z,9.35
2018-01-28T22:31:29.033Z,9.33
2018-01-28T22:33:57.812Z,9.30
2018-01-28T22:36:25.764Z,9.19
2018-01-28T22:38:54.512Z,9.21
2018-01-28T22:41:22.677Z,9.27
2018-01-28T22:43:50.738Z,9.21
2018-01-28T22:46:18.793Z,9.42
2018-01-28T22:48:47.394Z,9.53
2018-01-28T22:51:15.370Z,9.46
2018-01-28T22:53:43.573Z,9.50
2018-01-28T22:56:11.616Z,9.47
2018-01-28T22:58:41.737Z,9.49
2018-01-28T23:01:09.868Z,9.41
2018-01-28T23:03:37.924Z,9.39
2018-01-28T23:06:06.237Z,9.49
2018-01-28T23:08:34.531Z,9.50
2018-01-28T23:11:02.586Z,9.52
2018-01-28T23:13:31.609Z,9.47
2018-01-28T23:16:00.381Z,9.46
2018-01-28T23:18:29.230Z,9.53
2018-01-28T23:20:57.640Z,9.39
2018-01-28T23:23:25.792Z,9.46
2018-01-28T23:25:54.067Z,9.52
2018-01-28T23:28:22.163Z,9.52
2018-01-28T23:30:50.288Z,9.52
2018-01-28T23:33:19.537Z,9.52
2018-01-28T23:35:48.552Z,9.51
2018-01-28T23:38:17.730Z,9.41
2018-01-28T23:40:46.809Z,9.47
2018-01-28T23:43:15.008Z,9.52
2018-01-28T23:45:43.094Z,9.53
2018-01-28T23:48:11.242Z,9.54
2018-01-28T23:50:41.264Z,9.65
2018-01-28T23:53:11.469Z,9.65
2018-01-28T23:55:39.664Z,9.63
2018-01-28T23:58:07.858Z,9.57
